sensor_id;sensor_type;location;lat;lon;timestamp;P1;durP1;ratioP1;P2;durP2;ratioP2
48522;SDS011;34315;50.150;11.070;2023-03-01T00:00:09;23.15;;;10.25;;
48522;SDS011;34315;50.150;11.070;2023-03-01T00:05:12;20.60;;;10.52;;
48522;SDS011;34315;50.150;11.070;2023-03-01T00:10:13;20.80;;;10.45;;
48522;SDS011;34315;50.150;11.070;2023-03-01T00:15:14;20.77;;;10.15;;
48522;SDS011;34315;50.150;11.070;2023-03-01T00:20:15;19.85;;;9.77;;
48522;SDS011;34315;50.150;11.070;2023-03-01T00:25:17;22.45;;;10.00;;
48522;SDS011;34315;50.150;11.070;2023-03-01T00:30:18;18.33;;;9.52;;
48522;SDS011;34315;50.150;11.070;2023-03-01T00:35:19;17.38;;;9.35;;
48522;SDS011;34315;50.150;11.070;2023-03-01T00:40:20;20.92;;;10.13;;
48522;SDS011;34315;50.150;11.070;2023-03-01T00:45:21;17.60;;;9.98;;
48522;SDS011;34315;50.150;11.070;2023-03-01T00:50:23;20.42;;;9.93;;
48522;SDS011;34315;50.150;11.070;2023-03-01T00:55:24;23.00;;;10.32;;
48522;SDS011;34315;50.150;11.070;2023-03-01T01:00:25;22.77;;;10.80;;
48522;SDS011;34315;50.150;11.070;2023-03-01T01:05:27;21.15;;;9.98;;
48522;SDS011;34315;50.150;11.070;2023-03-01T01:10:28;21.38;;;9.30;;
48522;SDS011;34315;50.150;11.070;2023-03-01T01:15:33;19.63;;;10.70;;
48522;SDS011;34315;50.150;11.070;2023-03-01T01:20:35;22.65;;;11.23;;
48522;SDS011;34315;50.150;11.070;2023-03-01T01:25:37;21.83;;;10.25;;
48522;SDS011;34315;50.150;11.070;2023-03-01T01:30:38;18.95;;;10.10;;
48522;SDS011;34315;50.150;11.070;2023-03-01T01:35:39;21.67;;;10.30;;
48522;SDS011;34315;50.150;11.070;2023-03-01T01:40:46;18.30;;;9.75;;
48522;SDS011;34315;50.150;11.070;2023-03-01T01:45:49;20.38;;;10.63;;
48522;SDS011;34315;50.150;11.070;2023-03-01T01:50:57;21.55;;;11.05;;
48522;SDS011;34315;50.150;11.070;2023-03-01T01:56:00;20.30;;;10.02;;
48522;SDS011;34315;50.150;11.070;2023-03-01T02:01:02;22.45;;;11.45;;
48522;SDS011;34315;50.150;11.070;2023-03-01T02:06:04;18.50;;;9.52;;
48522;SDS011;34315;50.150;11.070;2023-03-01T02:11:08;25.20;;;10.48;;
48522;SDS011;34315;50.150;11.070;2023-03-01T02:16:11;24.27;;;11.68;;
48522;SDS011;34315;50.150;11.070;2023-03-01T02:26:36;20.08;;;9.68;;
48522;SDS011;34315;50.150;11.070;2023-03-01T02:31:42;21.98;;;9.88;;
48522;SDS011;34315;50.150;11.070;2023-03-01T02:36:50;22.25;;;9.98;;
48522;SDS011;34315;50.150;11.070;2023-03-01T02:42:00;21.05;;;9.77;;
48522;SDS011;34315;50.150;11.070;2023-03-01T02:47:03;17.65;;;9.68;;
48522;SDS011;34315;50.150;11.070;2023-03-01T02:52:17;20.15;;;9.38;;
48522;SDS011;34315;50.150;11.070;2023-03-01T02:57:22;19.00;;;9.77;;
48522;SDS011;34315;50.150;11.070;2023-03-01T03:02:26;20.30;;;10.25;;
48522;SDS011;34315;50.150;11.070;2023-03-01T03:07:43;22.40;;;9.45;;
48522;SDS011;34315;50.150;11.070;2023-03-01T03:12:49;18.73;;;9.52;;
48522;SDS011;34315;50.150;11.070;2023-03-01T03:17:55;18.17;;;9.80;;
48522;SDS011;34315;50.150;11.070;2023-03-01T03:22:57;25.30;;;10.95;;
48522;SDS011;34315;50.150;11.070;2023-03-01T03:27:59;19.48;;;9.85;;
48522;SDS011;34315;50.150;11.070;2023-03-01T03:33:00;19.83;;;10.13;;
48522;SDS011;34315;50.150;11.070;2023-03-01T03:38:03;22.13;;;11.18;;
48522;SDS011;34315;50.150;11.070;2023-03-01T03:43:08;22.08;;;10.32;;
48522;SDS011;34315;50.150;11.070;2023-03-01T03:48:11;21.20;;;10.15;;
48522;SDS011;34315;50.150;11.070;2023-03-01T03:53:12;19.17;;;10.45;;
48522;SDS011;34315;50.150;11.070;2023-03-01T03:58:13;18.38;;;9.23;;
48522;SDS011;34315;50.150;11.070;2023-03-01T04:03:15;21.17;;;9.57;;
48522;SDS011;34315;50.150;11.070;2023-03-01T04:08:20;18.98;;;9.80;;
48522;SDS011;34315;50.150;11.070;2023-03-01T04:13:22;21.20;;;10.48;;
48522;SDS011;34315;50.150;11.070;2023-03-01T04:18:25;17.55;;;9.70;;
48522;SDS011;34315;50.150;11.070;2023-03-01T04:23:27;20.55;;;9.85;;
48522;SDS011;34315;50.150;11.070;2023-03-01T04:28:29;18.90;;;10.30;;
48522;SDS011;34315;50.150;11.070;2023-03-01T04:33:33;21.83;;;10.48;;
48522;SDS011;34315;50.150;11.070;2023-03-01T04:38:35;20.67;;;10.27;;
48522;SDS011;34315;50.150;11.070;2023-03-01T04:43:37;17.83;;;9.68;;
48522;SDS011;34315;50.150;11.070;2023-03-01T04:48:39;23.10;;;9.90;;
48522;SDS011;34315;50.150;11.070;2023-03-01T04:53:41;19.00;;;10.00;;
48522;SDS011;34315;50.150;11.070;2023-03-01T04:58:43;23.35;;;10.43;;
48522;SDS011;34315;50.150;11.070;2023-03-01T05:03:45;22.23;;;10.43;;
48522;SDS011;34315;50.150;11.070;2023-03-01T05:08:47;20.67;;;10.20;;
48522;SDS011;34315;50.150;11.070;2023-03-01T05:13:48;19.55;;;10.32;;
48522;SDS011;34315;50.150;11.070;2023-03-01T05:18:55;21.33;;;10.80;;
48522;SDS011;34315;50.150;11.070;2023-03-01T05:23:57;20.42;;;9.90;;
48522;SDS011;34315;50.150;11.070;2023-03-01T05:28:58;25.40;;;11.10;;
48522;SDS011;34315;50.150;11.070;2023-03-01T05:34:00;20.60;;;9.77;;
48522;SDS011;34315;50.150;11.070;2023-03-01T05:39:02;21.92;;;10.50;;
48522;SDS011;34315;50.150;11.070;2023-03-01T05:44:03;20.08;;;10.73;;
48522;SDS011;34315;50.150;11.070;2023-03-01T05:49:07;23.95;;;11.05;;
48522;SDS011;34315;50.150;11.070;2023-03-01T05:54:08;38.35;;;15.10;;
48522;SDS011;34315;50.150;11.070;2023-03-01T05:59:10;37.35;;;16.25;;
48522;SDS011;34315;50.150;11.070;2023-03-01T06:04:11;24.55;;;12.45;;
48522;SDS011;34315;50.150;11.070;2023-03-01T06:09:13;24.05;;;11.43;;
48522;SDS011;34315;50.150;11.070;2023-03-01T06:14:14;26.98;;;12.90;;
48522;SDS011;34315;50.150;11.070;2023-03-01T06:19:16;22.52;;;11.70;;
48522;SDS011;34315;50.150;11.070;2023-03-01T06:24:17;27.70;;;11.75;;
48522;SDS011;34315;50.150;11.070;2023-03-01T06:29:18;26.60;;;11.30;;
48522;SDS011;34315;50.150;11.070;2023-03-01T06:34:19;28.25;;;11.95;;
48522;SDS011;34315;50.150;11.070;2023-03-01T06:39:22;23.25;;;12.00;;
48522;SDS011;34315;50.150;11.070;2023-03-01T06:44:23;26.08;;;11.70;;
48522;SDS011;34315;50.150;11.070;2023-03-01T06:49:24;27.88;;;13.38;;
48522;SDS011;34315;50.150;11.070;2023-03-01T06:54:25;26.48;;;13.52;;
48522;SDS011;34315;50.150;11.070;2023-03-01T06:59:26;32.55;;;14.60;;
48522;SDS011;34315;50.150;11.070;2023-03-01T07:04:27;28.63;;;14.88;;
48522;SDS011;34315;50.150;11.070;2023-03-01T07:09:31;28.65;;;14.35;;
48522;SDS011;34315;50.150;11.070;2023-03-01T07:14:32;28.98;;;14.13;;
48522;SDS011;34315;50.150;11.070;2023-03-01T07:19:33;25.65;;;13.93;;
48522;SDS011;34315;50.150;11.070;2023-03-01T07:24:35;36.55;;;14.68;;
48522;SDS011;34315;50.150;11.070;2023-03-01T07:29:36;24.05;;;12.57;;
48522;SDS011;34315;50.150;11.070;2023-03-01T07:34:37;25.23;;;13.38;;
48522;SDS011;34315;50.150;11.070;2023-03-01T07:39:38;27.23;;;13.15;;
48522;SDS011;34315;50.150;11.070;2023-03-01T07:44:39;22.77;;;12.27;;
48522;SDS011;34315;50.150;11.070;2023-03-01T07:49:40;24.80;;;12.43;;
48522;SDS011;34315;50.150;11.070;2023-03-01T07:54:42;21.55;;;12.10;;
48522;SDS011;34315;50.150;11.070;2023-03-01T07:59:44;23.80;;;10.82;;
48522;SDS011;34315;50.150;11.070;2023-03-01T08:04:45;21.77;;;11.80;;
48522;SDS011;34315;50.150;11.070;2023-03-01T08:09:47;22.98;;;11.07;;
48522;SDS011;34315;50.150;11.070;2023-03-01T08:14:48;18.00;;;10.50;;
48522;SDS011;34315;50.150;11.070;2023-03-01T08:19:49;21.63;;;11.40;;
48522;SDS011;34315;50.150;11.070;2023-03-01T08:24:50;18.08;;;10.57;;
48522;SDS011;34315;50.150;11.070;2023-03-01T08:29:51;22.90;;;12.00;;
48522;SDS011;34315;50.150;11.070;2023-03-01T08:34:53;24.05;;;11.70;;
48522;SDS011;34315;50.150;11.070;2023-03-01T08:39:54;20.83;;;11.27;;
48522;SDS011;34315;50.150;11.070;2023-03-01T08:44:55;24.13;;;11.77;;
48522;SDS011;34315;50.150;11.070;2023-03-01T08:49:57;22.33;;;11.77;;
48522;SDS011;34315;50.150;11.070;2023-03-01T08:54:58;20.40;;;11.23;;
48522;SDS011;34315;50.150;11.070;2023-03-01T09:00:02;19.10;;;11.23;;
48522;SDS011;34315;50.150;11.070;2023-03-01T09:05:04;22.27;;;11.45;;
48522;SDS011;34315;50.150;11.070;2023-03-01T09:10:05;20.08;;;12.00;;
48522;SDS011;34315;50.150;11.070;2023-03-01T09:15:06;19.58;;;11.80;;
48522;SDS011;34315;50.150;11.070;2023-03-01T09:20:08;20.55;;;11.93;;
48522;SDS011;34315;50.150;11.070;2023-03-01T09:25:10;25.13;;;11.20;;
48522;SDS011;34315;50.150;11.070;2023-03-01T09:30:11;20.92;;;11.57;;
48522;SDS011;34315;50.150;11.070;2023-03-01T09:35:13;20.27;;;11.82;;
48522;SDS011;34315;50.150;11.070;2023-03-01T09:40:18;21.65;;;11.60;;
48522;SDS011;34315;50.150;11.070;2023-03-01T09:45:30;20.20;;;11.32;;
48522;SDS011;34315;50.150;11.070;2023-03-01T09:50:38;21.17;;;12.02;;
48522;SDS011;34315;50.150;11.070;2023-03-01T09:55:45;19.98;;;11.07;;
48522;SDS011;34315;50.150;11.070;2023-03-01T10:00:51;20.63;;;11.82;;
48522;SDS011;34315;50.150;11.070;2023-03-01T10:06:08;21.90;;;11.85;;
48522;SDS011;34315;50.150;11.070;2023-03-01T10:11:24;21.23;;;11.77;;
48522;SDS011;34315;50.150;11.070;2023-03-01T10:21:48;20.80;;;11.15;;
48522;SDS011;34315;50.150;11.070;2023-03-01T10:26:55;19.83;;;11.38;;
48522;SDS011;34315;50.150;11.070;2023-03-01T10:31:58;25.95;;;11.60;;
48522;SDS011;34315;50.150;11.070;2023-03-01T10:37:10;23.13;;;11.68;;
48522;SDS011;34315;50.150;11.070;2023-03-01T10:42:28;20.67;;;12.00;;
48522;SDS011;34315;50.150;11.070;2023-03-01T10:47:33;19.98;;;10.52;;
48522;SDS011;34315;50.150;11.070;2023-03-01T10:52:40;18.02;;;10.20;;
48522;SDS011;34315;50.150;11.070;2023-03-01T10:57:42;16.70;;;10.10;;
48522;SDS011;34315;50.150;11.070;2023-03-01T11:02:43;17.77;;;10.32;;
48522;SDS011;34315;50.150;11.070;2023-03-01T11:07:57;17.42;;;9.50;;
48522;SDS011;34315;50.150;11.070;2023-03-01T11:13:06;20.90;;;9.20;;
48522;SDS011;34315;50.150;11.070;2023-03-01T11:18:18;15.10;;;9.05;;
48522;SDS011;34315;50.150;11.070;2023-03-01T11:23:21;19.67;;;10.25;;
48522;SDS011;34315;50.150;11.070;2023-03-01T11:28:23;16.77;;;10.18;;
48522;SDS011;34315;50.150;11.070;2023-03-01T11:33:37;17.08;;;9.95;;
48522;SDS011;34315;50.150;11.070;2023-03-01T11:38:43;14.80;;;9.00;;
48522;SDS011;34315;50.150;11.070;2023-03-01T11:43:47;15.25;;;9.18;;
48522;SDS011;34315;50.150;11.070;2023-03-01T11:49:12;17.60;;;9.52;;
48522;SDS011;34315;50.150;11.070;2023-03-01T11:54:37;14.68;;;8.85;;
48522;SDS011;34315;50.150;11.070;2023-03-01T12:11:00;17.00;;;9.43;;
48522;SDS011;34315;50.150;11.070;2023-03-01T12:21:39;15.10;;;8.38;;
48522;SDS011;34315;50.150;11.070;2023-03-01T12:27:07;13.43;;;7.80;;
48522;SDS011;34315;50.150;11.070;2023-03-01T12:37:33;14.10;;;8.63;;
48522;SDS011;34315;50.150;11.070;2023-03-01T12:53:03;15.30;;;7.75;;
48522;SDS011;34315;50.150;11.070;2023-03-01T13:03:36;14.75;;;8.50;;
48522;SDS011;34315;50.150;11.070;2023-03-01T13:19:22;13.10;;;8.35;;
48522;SDS011;34315;50.150;11.070;2023-03-01T13:24:33;16.73;;;8.07;;
48522;SDS011;34315;50.150;11.070;2023-03-01T13:30:01;14.02;;;7.70;;
48522;SDS011;34315;50.150;11.070;2023-03-01T13:35:40;13.90;;;7.88;;
48522;SDS011;34315;50.150;11.070;2023-03-01T13:45:45;14.53;;;8.67;;
48522;SDS011;34315;50.150;11.070;2023-03-01T13:50:51;13.02;;;8.05;;
48522;SDS011;34315;50.150;11.070;2023-03-01T13:56:00;14.15;;;8.60;;
48522;SDS011;34315;50.150;11.070;2023-03-01T14:01:04;14.57;;;8.85;;
48522;SDS011;34315;50.150;11.070;2023-03-01T14:06:07;15.85;;;9.23;;
48522;SDS011;34315;50.150;11.070;2023-03-01T14:16:34;15.52;;;10.05;;
48522;SDS011;34315;50.150;11.070;2023-03-01T14:21:48;13.75;;;8.75;;
48522;SDS011;34315;50.150;11.070;2023-03-01T14:27:02;16.17;;;9.63;;
48522;SDS011;34315;50.150;11.070;2023-03-01T14:32:20;15.75;;;9.77;;
48522;SDS011;34315;50.150;11.070;2023-03-01T14:42:29;17.65;;;9.85;;
48522;SDS011;34315;50.150;11.070;2023-03-01T14:47:34;14.07;;;9.23;;
48522;SDS011;34315;50.150;11.070;2023-03-01T14:52:37;19.73;;;10.60;;
48522;SDS011;34315;50.150;11.070;2023-03-01T14:57:42;16.83;;;9.23;;
48522;SDS011;34315;50.150;11.070;2023-03-01T15:02:44;18.10;;;11.70;;
48522;SDS011;34315;50.150;11.070;2023-03-01T15:07:47;17.98;;;10.75;;
48522;SDS011;34315;50.150;11.070;2023-03-01T15:12:49;21.75;;;11.73;;
48522;SDS011;34315;50.150;11.070;2023-03-01T15:17:52;16.75;;;11.63;;
48522;SDS011;34315;50.150;11.070;2023-03-01T15:22:56;19.35;;;12.25;;
48522;SDS011;34315;50.150;11.070;2023-03-01T15:27:58;20.25;;;12.07;;
48522;SDS011;34315;50.150;11.070;2023-03-01T15:33:16;21.17;;;12.93;;
48522;SDS011;34315;50.150;11.070;2023-03-01T15:38:32;20.52;;;11.93;;
48522;SDS011;34315;50.150;11.070;2023-03-01T15:43:40;19.08;;;12.25;;
48522;SDS011;34315;50.150;11.070;2023-03-01T15:48:44;21.30;;;12.75;;
48522;SDS011;34315;50.150;11.070;2023-03-01T15:53:50;21.95;;;12.68;;
48522;SDS011;34315;50.150;11.070;2023-03-01T15:58:52;20.70;;;13.32;;
48522;SDS011;34315;50.150;11.070;2023-03-01T16:03:53;23.77;;;15.23;;
48522;SDS011;34315;50.150;11.070;2023-03-01T16:08:54;23.42;;;13.15;;
48522;SDS011;34315;50.150;11.070;2023-03-01T16:13:55;23.55;;;13.95;;
48522;SDS011;34315;50.150;11.070;2023-03-01T16:18:57;20.23;;;13.15;;
48522;SDS011;34315;50.150;11.070;2023-03-01T16:23:58;20.13;;;13.07;;
48522;SDS011;34315;50.150;11.070;2023-03-01T16:28:59;23.40;;;13.10;;
48522;SDS011;34315;50.150;11.070;2023-03-01T16:34:00;21.48;;;12.93;;
48522;SDS011;34315;50.150;11.070;2023-03-01T16:39:01;24.17;;;12.98;;
48522;SDS011;34315;50.150;11.070;2023-03-01T16:44:03;21.90;;;12.77;;
48522;SDS011;34315;50.150;11.070;2023-03-01T16:49:04;21.83;;;12.77;;
48522;SDS011;34315;50.150;11.070;2023-03-01T16:54:05;21.23;;;13.38;;
48522;SDS011;34315;50.150;11.070;2023-03-01T16:59:07;23.70;;;13.88;;
48522;SDS011;34315;50.150;11.070;2023-03-01T17:04:10;21.00;;;12.25;;
48522;SDS011;34315;50.150;11.070;2023-03-01T17:09:12;20.73;;;12.52;;
48522;SDS011;34315;50.150;11.070;2023-03-01T17:14:13;24.45;;;14.45;;
48522;SDS011;34315;50.150;11.070;2023-03-01T17:19:16;23.15;;;13.95;;
48522;SDS011;34315;50.150;11.070;2023-03-01T17:24:18;22.35;;;12.75;;
48522;SDS011;34315;50.150;11.070;2023-03-01T17:29:19;25.80;;;14.07;;
48522;SDS011;34315;50.150;11.070;2023-03-01T17:34:21;25.08;;;14.13;;
48522;SDS011;34315;50.150;11.070;2023-03-01T17:39:22;22.67;;;12.32;;
48522;SDS011;34315;50.150;11.070;2023-03-01T17:44:27;22.85;;;13.40;;
48522;SDS011;34315;50.150;11.070;2023-03-01T17:49:29;23.67;;;13.50;;
48522;SDS011;34315;50.150;11.070;2023-03-01T17:54:30;25.17;;;13.70;;
48522;SDS011;34315;50.150;11.070;2023-03-01T17:59:35;24.30;;;13.25;;
48522;SDS011;34315;50.150;11.070;2023-03-01T18:04:36;22.77;;;12.73;;
48522;SDS011;34315;50.150;11.070;2023-03-01T18:09:37;26.95;;;14.25;;
48522;SDS011;34315;50.150;11.070;2023-03-01T18:14:39;27.17;;;14.35;;
48522;SDS011;34315;50.150;11.070;2023-03-01T18:19:40;22.38;;;13.20;;
48522;SDS011;34315;50.150;11.070;2023-03-01T18:24:41;23.98;;;13.40;;
48522;SDS011;34315;50.150;11.070;2023-03-01T18:29:42;26.88;;;14.20;;
48522;SDS011;34315;50.150;11.070;2023-03-01T18:34:43;30.58;;;15.25;;
48522;SDS011;34315;50.150;11.070;2023-03-01T18:39:45;32.45;;;15.43;;
48522;SDS011;34315;50.150;11.070;2023-03-01T18:44:46;25.95;;;13.88;;
48522;SDS011;34315;50.150;11.070;2023-03-01T18:49:48;26.55;;;14.38;;
48522;SDS011;34315;50.150;11.070;2023-03-01T18:54:49;27.08;;;13.95;;
48522;SDS011;34315;50.150;11.070;2023-03-01T18:59:50;23.90;;;13.27;;
48522;SDS011;34315;50.150;11.070;2023-03-01T19:04:51;26.63;;;14.70;;
48522;SDS011;34315;50.150;11.070;2023-03-01T19:09:52;28.27;;;15.20;;
48522;SDS011;34315;50.150;11.070;2023-03-01T19:14:53;31.00;;;15.43;;
48522;SDS011;34315;50.150;11.070;2023-03-01T19:19:54;27.38;;;14.73;;
48522;SDS011;34315;50.150;11.070;2023-03-01T19:24:58;29.98;;;15.95;;
48522;SDS011;34315;50.150;11.070;2023-03-01T19:29:59;30.52;;;16.60;;
48522;SDS011;34315;50.150;11.070;2023-03-01T19:35:00;28.30;;;14.75;;
48522;SDS011;34315;50.150;11.070;2023-03-01T19:40:02;25.73;;;14.25;;
48522;SDS011;34315;50.150;11.070;2023-03-01T19:45:03;26.58;;;15.00;;
48522;SDS011;34315;50.150;11.070;2023-03-01T19:50:04;29.92;;;15.68;;
48522;SDS011;34315;50.150;11.070;2023-03-01T19:55:06;30.70;;;16.45;;
48522;SDS011;34315;50.150;11.070;2023-03-01T20:00:07;29.50;;;14.98;;
48522;SDS011;34315;50.150;11.070;2023-03-01T20:05:13;27.15;;;14.52;;
48522;SDS011;34315;50.150;11.070;2023-03-01T20:10:14;31.27;;;14.85;;
48522;SDS011;34315;50.150;11.070;2023-03-01T20:15:15;29.85;;;13.85;;
48522;SDS011;34315;50.150;11.070;2023-03-01T20:20:16;27.20;;;14.25;;
48522;SDS011;34315;50.150;11.070;2023-03-01T20:25:17;26.23;;;14.25;;
48522;SDS011;34315;50.150;11.070;2023-03-01T20:30:18;27.40;;;14.68;;
48522;SDS011;34315;50.150;11.070;2023-03-01T20:35:19;26.10;;;13.80;;
48522;SDS011;34315;50.150;11.070;2023-03-01T20:40:21;27.52;;;14.32;;
48522;SDS011;34315;50.150;11.070;2023-03-01T20:45:26;29.77;;;14.65;;
48522;SDS011;34315;50.150;11.070;2023-03-01T20:50:27;29.58;;;15.45;;
48522;SDS011;34315;50.150;11.070;2023-03-01T20:55:28;33.53;;;15.88;;
48522;SDS011;34315;50.150;11.070;2023-03-01T21:00:29;33.67;;;16.17;;
48522;SDS011;34315;50.150;11.070;2023-03-01T21:05:30;30.50;;;14.77;;
48522;SDS011;34315;50.150;11.070;2023-03-01T21:10:32;28.02;;;14.65;;
48522;SDS011;34315;50.150;11.070;2023-03-01T21:15:33;30.55;;;14.93;;
48522;SDS011;34315;50.150;11.070;2023-03-01T21:20:34;39.97;;;17.90;;
48522;SDS011;34315;50.150;11.070;2023-03-01T21:25:42;31.38;;;15.20;;
48522;SDS011;34315;50.150;11.070;2023-03-01T21:30:44;37.28;;;20.10;;
48522;SDS011;34315;50.150;11.070;2023-03-01T21:35:45;32.63;;;15.70;;
48522;SDS011;34315;50.150;11.070;2023-03-01T21:40:47;31.60;;;14.77;;
48522;SDS011;34315;50.150;11.070;2023-03-01T21:45:48;24.85;;;13.75;;
48522;SDS011;34315;50.150;11.070;2023-03-01T21:50:59;27.20;;;13.23;;
48522;SDS011;34315;50.150;11.070;2023-03-01T21:56:00;26.48;;;13.35;;
48522;SDS011;34315;50.150;11.070;2023-03-01T22:01:09;29.73;;;14.00;;
48522;SDS011;34315;50.150;11.070;2023-03-01T22:06:13;27.95;;;14.50;;
48522;SDS011;34315;50.150;11.070;2023-03-01T22:11:18;27.27;;;14.00;;
48522;SDS011;34315;50.150;11.070;2023-03-01T22:16:23;28.45;;;13.60;;
48522;SDS011;34315;50.150;11.070;2023-03-01T22:21:25;30.38;;;13.40;;
48522;SDS011;34315;50.150;11.070;2023-03-01T22:26:31;26.70;;;13.23;;
48522;SDS011;34315;50.150;11.070;2023-03-01T22:31:33;36.85;;;14.43;;
48522;SDS011;34315;50.150;11.070;2023-03-01T22:36:35;27.27;;;13.07;;
48522;SDS011;34315;50.150;11.070;2023-03-01T22:41:38;26.27;;;12.45;;
48522;SDS011;34315;50.150;11.070;2023-03-01T22:46:42;29.15;;;13.38;;
48522;SDS011;34315;50.150;11.070;2023-03-01T22:51:44;26.00;;;12.52;;
48522;SDS011;34315;50.150;11.070;2023-03-01T22:56:47;23.73;;;12.07;;
48522;SDS011;34315;50.150;11.070;2023-03-01T23:01:48;22.98;;;11.27;;
48522;SDS011;34315;50.150;11.070;2023-03-01T23:06:50;22.73;;;12.00;;
48522;SDS011;34315;50.150;11.070;2023-03-01T23:11:53;21.92;;;11.00;;
48522;SDS011;34315;50.150;11.070;2023-03-01T23:16:55;23.08;;;11.45;;
48522;SDS011;34315;50.150;11.070;2023-03-01T23:21:56;26.63;;;12.48;;
48522;SDS011;34315;50.150;11.070;2023-03-01T23:26:58;27.35;;;12.30;;
48522;SDS011;34315;50.150;11.070;2023-03-01T23:32:00;27.63;;;12.50;;
48522;SDS011;34315;50.150;11.070;2023-03-01T23:37:02;22.40;;;11.45;;
48522;SDS011;34315;50.150;11.070;2023-03-01T23:42:03;24.00;;;11.13;;
48522;SDS011;34315;50.150;11.070;2023-03-01T23:47:04;24.35;;;11.88;;
48522;SDS011;34315;50.150;11.070;2023-03-01T23:52:05;21.08;;;11.18;;
48522;SDS011;34315;50.150;11.070;2023-03-01T23:57:07;22.88;;;11.60;;
